Terminal Aerodrome Forecast
Issued by NWS

Current Version | Previous Version | Text Only | Print | Product List | Glossary On
Versions: 1 2 3 4 5 6 7 8 9 10 11 12 13 14 15
000
FTUS43 KJKL 262300
TAFSJS
TAF
KSJS 262320Z 2700/2724 VRB05KT P6SM BKN050
     FM270400 VRB04KT P6SM VCSH BKN025
     FM270700 VRB04KT 5SM -RASN BR SCT015 OVC025
     FM271400 31005KT P6SM BKN015
     FM271700 29007KT P6SM BKN035=

USA.gov is the U.S. government's official web portal to all federal, state and local government web resources and services.